Spokane Fairchild, WA

11:36 AM PDT on April 29, 2017 (GMT -0700)
Fairchild Air Force Base

Weather History for KSKA - February, 2013

Change the Weather History Date:

Monday, February 11, 2013

  Actual Average Record
Temperature  
Mean Temperature 28 °F -  
Max Temperature 37 °F 36 °F 49 °F (2015)
Min Temperature 20 °F 23 °F 14 °F (1999)
Degree Days  
Heating Degree Days 36    
Moisture  
Dew Point 27 °F    
Average Humidity 94    
Maximum Humidity 100    
Minimum Humidity 73    
Precipitation  
Precipitation 0.00 in - - ()
Sea Level Pressure  
Sea Level Pressure 30.18 in    
Wind  
Wind Speed 3 mph (East)    
Max Wind Speed 9 mph    
Max Gust Speed -    
Visibility 8 miles    
Events Snow    
Averages and records for this station are not official NWS values.
T = Trace of Precipitation, MM = Missing Value Source: NWS Daily Summary

Daily Weather History Graph

Daily Weather History Graph

Search for Another Location

Airport or City:

Trip Planner

Search our weather history database for the weather conditions in past years. The results will help you decide how hot, cold, wet, or windy it might be!

Date:

Astronomy

Feb. 11, 2013 Rise Set
Actual Time 7:02 AM PST 5:08 PM PST
Civil Twilight 6:30 AM PST 5:40 PM PST
Nautical Twilight 5:53 AM PST 6:16 PM PST
Astronomical Twilight 5:18 AM PST 6:52 PM PST
Moon 7:18 AM PST (2/11) 7:23 PM PST (2/11)
Length of Visible Light 11h 10m
Length of Day
10h 05m
Waxing Crescent, 3% of the Moon is Illuminated
Feb 11
Waxing Crescent
Feb 17
First Quarter
Feb 25
Full
Mar 4
Last Quarter
Mar 11
New

Hourly Weather History & Observations

Time (PST) Temp. Windchill Dew Point Humidity Pressure Visibility Wind Dir Wind Speed Gust Speed Precip Events Conditions
12:38 AM 23.0 °F - 23.0 °F 100% 30.16 in 10.0 mi NNE 1.2 mph - N/A   Clear
12:54 AM 23.0 °F 18.4 °F 23.0 °F 100% 30.15 in 8.0 mi NE 3.5 mph - N/A   Clear
12:58 AM 23.2 °F 18.7 °F 22.8 °F 99% 30.24 in 9.0 mi NE 3.5 mph - 0.00 in   Clear
1:58 AM 23.9 °F 18.0 °F 23.4 °F 98% 30.25 in 10.0 mi NE 4.6 mph - N/A   Clear
2:58 AM 24.1 °F 18.2 °F 23.5 °F 98% 30.26 in 10.0 mi NNE 4.6 mph - N/A   Clear
3:55 AM 23.0 °F - 21.2 °F 93% 30.16 in 10.0 mi NE 1.2 mph - N/A   Mostly Cloudy
3:58 AM 23.0 °F - 21.2 °F 93% 30.25 in 10.0 mi NE 1.2 mph - N/A   Mostly Cloudy
4:05 AM 24.8 °F - 24.8 °F 100% 30.16 in 10.0 mi Calm Calm - N/A   Mostly Cloudy
4:55 AM 21.2 °F 14.9 °F 19.4 °F 93% 30.14 in 10.0 mi East 4.6 mph - N/A   Scattered Clouds
4:58 AM 20.5 °F 14.0 °F 19.4 °F 96% 30.24 in 10.0 mi East 4.6 mph - 0.00 in   Scattered Clouds
5:02 AM 21.2 °F 16.4 °F 21.2 °F 100% 30.15 in 10.0 mi East 3.5 mph - N/A   Partly Cloudy
5:07 AM 23.0 °F 17.0 °F 23.0 °F 100% 30.15 in 8.0 mi ENE 4.6 mph - N/A Snow Light Snow
5:11 AM 23.0 °F 17.0 °F 23.0 °F 100% 30.15 in 7.0 mi ENE 4.6 mph - N/A   Clear
5:16 AM 23.0 °F 17.0 °F 23.0 °F 100% 30.14 in 4.0 mi East 4.6 mph - N/A Snow Light Snow
5:21 AM 23.0 °F 18.4 °F 23.0 °F 100% 30.14 in 1.8 mi East 3.5 mph - N/A Snow Light Snow
5:26 AM 23.0 °F - 23.0 °F 100% 30.14 in 1.2 mi ENE 2.3 mph - N/A Snow Light Snow
5:30 AM 23.0 °F 18.4 °F 23.0 °F 100% 30.15 in 2.0 mi East 3.5 mph - N/A   Clear
5:35 AM 23.0 °F 18.4 °F 23.0 °F 100% 30.14 in 5.0 mi ENE 3.5 mph - N/A   Clear
5:40 AM 23.0 °F 18.4 °F 23.0 °F 100% 30.14 in 2.0 mi ENE 3.5 mph - N/A   Clear
5:43 AM 23.0 °F 18.4 °F 23.0 °F 100% 30.14 in 1.5 mi ENE 3.5 mph - N/A Snow Light Snow
5:48 AM 23.0 °F 18.4 °F 23.0 °F 100% 30.14 in 1.2 mi ENE 3.5 mph - N/A Snow Light Snow
5:53 AM 23.0 °F 17.0 °F 23.0 °F 100% 30.14 in 1.0 mi East 4.6 mph - N/A Snow Light Snow
5:58 AM 23.2 °F 18.7 °F 22.5 °F 97% 30.24 in 1.0 mi ENE 3.5 mph - 0.00 in Snow Light Snow
6:03 AM 23.0 °F 18.4 °F 23.0 °F 100% 30.15 in 1.8 mi ENE 3.5 mph - N/A Snow Light Snow
6:04 AM 23.0 °F 18.4 °F 23.0 °F 100% 30.14 in 2.0 mi ENE 3.5 mph - N/A   Clear
6:09 AM 23.0 °F 18.4 °F 23.0 °F 100% 30.15 in 3.0 mi NE 3.5 mph - N/A   Clear
6:32 AM 23.0 °F 18.4 °F 23.0 °F 100% 30.14 in 10.0 mi ENE 3.5 mph - N/A   Clear
6:41 AM 23.0 °F - 23.0 °F 100% 30.14 in 10.0 mi ENE 2.3 mph - N/A   Clear
6:58 AM 23.0 °F 17.0 °F 22.3 °F 97% 30.24 in 10.0 mi ENE 4.6 mph - 0.00 in   Clear
7:27 AM 23.0 °F 18.4 °F 23.0 °F 100% 30.16 in 7.0 mi NNE 3.5 mph - N/A   Scattered Clouds
7:32 AM 23.0 °F 18.4 °F 21.2 °F 93% 30.16 in 7.0 mi NNE 3.5 mph - N/A   Mostly Cloudy
7:36 AM 23.0 °F 18.4 °F 23.0 °F 100% 30.16 in 9.0 mi NNE 3.5 mph - N/A   Mostly Cloudy
7:58 AM 24.6 °F - 24.1 °F 98% 30.25 in 10.0 mi Calm Calm - 0.00 in   Mostly Cloudy
8:03 AM 23.0 °F - 21.2 °F 93% 30.15 in 10.0 mi Calm Calm - N/A   Scattered Clouds
8:35 AM 28.4 °F 23.3 °F 28.4 °F 100% 30.16 in 10.0 mi NE 4.6 mph - N/A   Partly Cloudy
8:40 AM 28.4 °F 23.3 °F 28.4 °F 100% 30.16 in 10.0 mi NE 4.6 mph - N/A   Partly Cloudy
8:42 AM 28.4 °F 23.3 °F 28.4 °F 100% 30.16 in 10.0 mi NE 4.6 mph - N/A   Partly Cloudy
8:58 AM 28.8 °F 23.7 °F 28.6 °F 99% 30.25 in 10.0 mi ENE 4.6 mph - 0.00 in   Clear
9:54 AM 32.0 °F 25.6 °F 32.0 °F 100% 30.17 in 10.0 mi ESE 6.9 mph - N/A   Clear
9:58 AM 31.5 °F 24.9 °F 30.7 °F 97% 30.25 in 10.0 mi ESE 6.9 mph - 0.00 in   Clear
10:58 AM 34.2 °F 28.2 °F 28.9 °F 81% 30.25 in 10.0 mi SSE 6.9 mph - N/A   Clear
11:58 AM 36.3 °F 32.5 °F 29.1 °F 75% 30.23 in 10.0 mi SSE 4.6 mph - N/A   Partly Cloudy
12:23 PM 35.6 °F 31.7 °F 28.4 °F 75% 30.16 in 10.0 mi South 4.6 mph - N/A   Overcast
12:58 PM 37.6 °F 31.6 °F 29.5 °F 73% 30.23 in 10.0 mi South 8.1 mph - N/A   Overcast
1:00 PM 37.4 °F 31.4 °F 30.2 °F 75% 30.14 in 10.0 mi South 8.1 mph - N/A   Overcast
1:19 PM 37.4 °F 33.8 °F 30.2 °F 75% 30.14 in 10.0 mi SSW 4.6 mph - N/A   Mostly Cloudy
1:28 PM 37.4 °F 30.8 °F 30.2 °F 75% 30.14 in 10.0 mi South 9.2 mph - N/A   Mostly Cloudy
1:37 PM 37.4 °F 31.4 °F 30.2 °F 75% 30.14 in 10.0 mi South 8.1 mph - N/A   Overcast
1:58 PM 37.0 °F 32.4 °F 30.4 °F 77% 30.22 in 10.0 mi Variable 5.8 mph - 0.00 in   Overcast
2:58 PM 34.9 °F 29.9 °F 30.6 °F 84% 30.23 in 10.0 mi West 5.8 mph - N/A   Overcast
3:58 PM 34.7 °F 31.8 °F 30.9 °F 86% 30.23 in 10.0 mi West 3.5 mph - N/A   Overcast
4:27 PM 33.8 °F - 32.0 °F 93% 30.16 in 10.0 mi West 2.3 mph - N/A   Overcast
4:41 PM 33.8 °F 30.8 °F 32.0 °F 93% 30.15 in 10.0 mi SW 3.5 mph - N/A   Overcast
4:58 PM 34.0 °F 29.8 °F 30.6 °F 87% 30.24 in 10.0 mi SW 4.6 mph - 0.00 in   Overcast
5:35 PM 32.0 °F - 30.2 °F 93% 30.16 in 10.0 mi Calm Calm - N/A   Overcast
5:43 PM 32.0 °F - 30.2 °F 93% 30.16 in 10.0 mi Calm Calm - N/A   Overcast
5:58 PM 32.9 °F - 29.8 °F 88% 30.25 in 10.0 mi South 2.3 mph - 0.00 in   Overcast
6:58 PM 32.7 °F 29.6 °F 30.4 °F 91% 30.25 in 10.0 mi SSE 3.5 mph - N/A   Overcast
7:03 PM 32.0 °F 27.5 °F 32.0 °F 100% 30.16 in 10.0 mi SSE 4.6 mph - N/A   Overcast
7:12 PM 32.0 °F - 32.0 °F 100% 30.16 in 10.0 mi South 2.3 mph - N/A   Overcast
7:58 PM 33.1 °F 30.0 °F 30.6 °F 90% 30.25 in 10.0 mi South 3.5 mph - 0.00 in   Overcast
8:08 PM 32.0 °F 28.7 °F 32.0 °F 100% 30.16 in 10.0 mi SSW 3.5 mph - N/A   Overcast
8:58 PM 32.9 °F - 30.6 °F 91% 30.25 in 10.0 mi West 2.3 mph - N/A   Overcast
9:12 PM 32.0 °F - 32.0 °F 100% 30.17 in 10.0 mi WNW 2.3 mph - N/A   Overcast
9:29 PM 32.0 °F - 32.0 °F 100% 30.17 in 10.0 mi West 1.2 mph - N/A   Overcast
9:58 PM 32.0 °F - 32.0 °F 100% 30.24 in 10.0 mi North 1.2 mph - 0.00 in   Overcast
10:58 PM 32.5 °F - 30.4 °F 92% 30.24 in 10.0 mi Calm Calm - N/A   Overcast
11:58 PM 32.0 °F - 30.7 °F 95% 30.24 in 10.0 mi SSE 2.3 mph - N/A   Overcast